Terminal Aerodrome Forecast
Issued by NWS Tuscon, AZ

Home | Current Version | Previous Version | Text Only | Print | Product List | Glossary On
Versions: 1 2 3 4 5 6 7 8 9 10 11 12 13
000
FTUS45 KTWC 222329
TAFTUS
TAF
KTUS 222329Z 2300/2324 24018G26KT P6SM FEW150
     FM230200 27011KT P6SM FEW250
     FM230800 16007KT P6SM SCT250
     FM231600 25009KT P6SM FEW250=

USA.gov is the U.S. government's official web portal to all federal, state and local government web resources and services.